createdAt,value
2017-06-28T00:00:24.298Z,12.94
2017-06-28T00:01:23.648Z,12.98
2017-06-28T00:02:24.288Z,12.99
2017-06-28T00:03:24.281Z,12.94
2017-06-28T00:04:24.276Z,12.92
2017-06-28T00:05:24.281Z,12.96
2017-06-28T00:06:23.942Z,12.86
2017-06-28T00:07:24.257Z,12.92
2017-06-28T00:08:24.276Z,12.98
2017-06-28T00:09:24.244Z,12.86
2017-06-28T00:10:23.916Z,12.95
2017-06-28T00:11:23.592Z,12.92
2017-06-28T00:12:23.905Z,12.91
2017-06-28T00:13:24.262Z,13.01
2017-06-28T00:14:24.219Z,12.96
2017-06-28T00:15:24.214Z,12.95
2017-06-28T00:16:23.901Z,12.96
2017-06-28T00:17:23.887Z,13.01
2017-06-28T00:18:24.221Z,12.92
2017-06-28T00:19:24.190Z,12.98
2017-06-28T00:20:23.867Z,12.94
2017-06-28T00:21:23.910Z,12.99
2017-06-28T00:22:24.173Z,12.92
2017-06-28T00:23:24.181Z,12.92
2017-06-28T00:24:23.845Z,12.95
2017-06-28T00:25:24.175Z,12.95
2017-06-28T00:26:23.844Z,13.01
2017-06-28T00:27:24.163Z,12.96
2017-06-28T00:28:24.171Z,12.96
2017-06-28T00:29:23.820Z,12.95
2017-06-28T00:30:23.827Z,12.92
2017-06-28T00:31:23.821Z,12.94
2017-06-28T00:32:24.113Z,12.92
2017-06-28T00:33:24.116Z,12.95
2017-06-28T00:34:24.103Z,12.94
2017-06-28T00:35:24.132Z,13.03
2017-06-28T00:36:24.101Z,12.92
2017-06-28T00:37:24.106Z,12.96
2017-06-28T00:38:23.447Z,13.01
2017-06-28T00:39:23.773Z,13.03
2017-06-28T00:40:23.772Z,12.91
2017-06-28T00:41:23.425Z,13.01
2017-06-28T00:42:24.077Z,12.91
2017-06-28T00:43:23.739Z,12.91
2017-06-28T00:44:24.069Z,12.92
2017-06-28T00:45:24.058Z,12.95
2017-06-28T00:46:23.715Z,12.94
2017-06-28T00:47:24.032Z,12.86
2017-06-28T00:48:23.706Z,12.89
2017-06-28T00:49:23.698Z,12.89
2017-06-28T00:50:24.017Z,12.86
2017-06-28T00:51:24.036Z,12.91
2017-06-28T00:52:24.001Z,12.88
2017-06-28T00:53:23.998Z,12.89
2017-06-28T00:54:23.674Z,12.88
2017-06-28T00:55:23.436Z,12.88
2017-06-28T00:56:23.336Z,12.91
2017-06-28T00:57:23.981Z,12.89
2017-06-28T00:58:24.005Z,12.83
2017-06-28T00:59:23.322Z,12.84
2017-06-28T01:00:23.644Z,12.8
2017-06-28T01:01:23.952Z,12.83
2017-06-28T01:02:23.643Z,12.88
2017-06-28T01:03:23.632Z,12.88
2017-06-28T01:04:23.629Z,12.86
2017-06-28T01:05:23.925Z,12.91
2017-06-28T01:06:23.923Z,12.96
2017-06-28T01:07:23.596Z,12.95
2017-06-28T01:08:23.607Z,12.95
2017-06-28T01:09:23.919Z,12.92
2017-06-28T01:10:23.900Z,12.89
2017-06-28T01:11:23.891Z,12.88
2017-06-28T01:12:23.903Z,12.89
2017-06-28T01:13:23.267Z,12.81
2017-06-28T01:14:23.880Z,12.91
2017-06-28T01:15:23.561Z,12.86
2017-06-28T01:16:23.596Z,12.84
2017-06-28T01:17:23.875Z,12.84
2017-06-28T01:18:23.550Z,12.86
2017-06-28T01:19:23.892Z,12.84
2017-06-28T01:20:23.840Z,12.83
2017-06-28T01:21:23.836Z,12.83
2017-06-28T01:22:23.200Z,12.83
2017-06-28T01:23:23.835Z,12.84
2017-06-28T01:24:23.819Z,12.84
2017-06-28T01:25:23.821Z,12.83
2017-06-28T01:26:23.487Z,12.88
2017-06-28T01:27:23.808Z,12.89
2017-06-28T01:28:23.798Z,12.86
2017-06-28T01:29:23.807Z,12.89
2017-06-28T01:30:23.469Z,12.83
2017-06-28T01:31:23.478Z,12.8
2017-06-28T01:32:23.451Z,12.83
2017-06-28T01:33:23.457Z,12.81
2017-06-28T01:34:23.775Z,12.91
2017-06-28T01:35:23.444Z,12.74
2017-06-28T01:36:23.428Z,12.76
2017-06-28T01:37:23.758Z,12.81
2017-06-28T01:38:23.737Z,12.77
2017-06-28T01:39:23.732Z,12.77
2017-06-28T01:40:23.402Z,12.71
2017-06-28T01:41:23.405Z,12.71
2017-06-28T01:42:23.387Z,12.74
2017-06-28T01:43:23.389Z,12.71
2017-06-28T01:44:23.723Z,12.81
2017-06-28T01:45:23.738Z,12.84
2017-06-28T01:46:23.377Z,12.8
2017-06-28T01:47:23.373Z,12.91
2017-06-28T01:48:23.692Z,12.89
2017-06-28T01:49:23.690Z,12.88
2017-06-28T01:50:23.362Z,12.86
2017-06-28T01:51:23.359Z,12.91
2017-06-28T01:52:23.356Z,12.88
2017-06-28T01:53:23.655Z,12.86
2017-06-28T01:54:23.649Z,12.89
2017-06-28T01:55:23.321Z,12.84
2017-06-28T01:56:23.308Z,12.91
2017-06-28T01:57:22.987Z,12.88
2017-06-28T01:58:23.624Z,12.84
2017-06-28T01:59:23.311Z,12.84
2017-06-28T02:00:23.296Z,12.83
2017-06-28T02:01:23.279Z,12.83
2017-06-28T02:02:23.600Z,12.81
2017-06-28T02:03:23.596Z,12.74
2017-06-28T02:04:23.277Z,12.76
2017-06-28T02:05:23.282Z,12.8
2017-06-28T02:06:23.571Z,12.8
2017-06-28T02:07:23.585Z,12.81
2017-06-28T02:08:23.562Z,12.8
2017-06-28T02:09:23.607Z,12.8
2017-06-28T02:10:23.228Z,12.86
2017-06-28T02:11:23.220Z,12.76
2017-06-28T02:12:23.218Z,12.77
2017-06-28T02:13:23.529Z,12.78
2017-06-28T02:14:23.529Z,12.76
2017-06-28T02:15:23.204Z,12.78
2017-06-28T02:16:23.510Z,12.7
2017-06-28T02:17:23.516Z,12.73
2017-06-28T02:18:23.183Z,12.74
2017-06-28T02:19:23.517Z,12.76
2017-06-28T02:20:23.500Z,12.77
2017-06-28T02:21:23.504Z,12.8
2017-06-28T02:22:23.174Z,12.77
2017-06-28T02:23:23.188Z,12.7
2017-06-28T02:24:23.183Z,12.74
2017-06-28T02:25:23.146Z,12.71
2017-06-28T02:26:23.455Z,12.76
2017-06-28T02:27:23.150Z,12.78
2017-06-28T02:28:23.120Z,12.77
2017-06-28T02:29:23.438Z,12.77
2017-06-28T02:30:23.138Z,12.74
2017-06-28T02:31:22.793Z,12.81
2017-06-28T02:32:23.420Z,12.76
2017-06-28T02:33:23.415Z,12.74
2017-06-28T02:34:23.087Z,12.76
2017-06-28T02:35:23.401Z,12.76
2017-06-28T02:36:22.751Z,12.73
2017-06-28T02:37:23.070Z,12.71
2017-06-28T02:38:23.104Z,12.73
2017-06-28T02:39:23.054Z,12.71
2017-06-28T02:40:23.377Z,12.73
2017-06-28T02:41:23.059Z,12.73
2017-06-28T02:42:23.047Z,12.74
2017-06-28T02:43:23.033Z,12.71
2017-06-28T02:44:23.357Z,12.77
2017-06-28T02:45:23.338Z,12.78
2017-06-28T02:46:23.018Z,12.8
2017-06-28T02:47:23.360Z,12.78
2017-06-28T02:48:23.325Z,12.73
2017-06-28T02:49:23.369Z,12.76
2017-06-28T02:50:23.307Z,12.78
2017-06-28T02:51:22.984Z,12.76
2017-06-28T02:52:23.301Z,12.76
2017-06-28T02:53:23.290Z,12.74
2017-06-28T02:54:23.304Z,12.77
2017-06-28T02:55:22.657Z,12.84
2017-06-28T02:56:22.980Z,12.84
2017-06-28T02:57:22.946Z,12.89
2017-06-28T02:58:22.943Z,12.89
2017-06-28T02:59:22.939Z,12.95
2017-06-28T03:00:23.248Z,12.94
2017-06-28T03:01:23.259Z,13.11
2017-06-28T03:02:22.919Z,13.1
2017-06-28T03:03:22.914Z,13.06
2017-06-28T03:04:23.239Z,13.11
2017-06-28T03:05:22.917Z,13.2
2017-06-28T03:06:22.892Z,13.19
2017-06-28T03:07:22.908Z,13.2
2017-06-28T03:08:22.562Z,13.32
2017-06-28T03:09:23.201Z,13.29
2017-06-28T03:10:23.288Z,13.37
2017-06-28T03:11:23.199Z,13.44
2017-06-28T03:12:22.859Z,13.45
2017-06-28T03:13:22.899Z,13.47
2017-06-28T03:14:23.183Z,13.53
2017-06-28T03:15:23.166Z,13.5
2017-06-28T03:16:22.515Z,13.6
2017-06-28T03:17:22.853Z,13.62
2017-06-28T03:18:23.176Z,13.68
2017-06-28T03:19:22.831Z,13.83
2017-06-28T03:20:23.161Z,13.81
2017-06-28T03:21:22.810Z,13.95
2017-06-28T03:22:23.141Z,13.99
2017-06-28T03:23:22.497Z,14.06
2017-06-28T03:24:22.471Z,14.09
2017-06-28T03:25:22.802Z,14.05
2017-06-28T03:26:22.780Z,14.23
2017-06-28T03:27:23.106Z,14.3
2017-06-28T03:28:22.771Z,14.36
2017-06-28T03:29:23.087Z,14.38
2017-06-28T03:30:22.788Z,14.36
2017-06-28T03:31:23.074Z,14.45
2017-06-28T03:32:23.077Z,14.51
2017-06-28T03:33:23.063Z,14.56
2017-06-28T03:34:23.068Z,14.63
2017-06-28T03:35:23.052Z,14.69
2017-06-28T03:36:23.075Z,14.63
2017-06-28T03:37:22.738Z,14.74
2017-06-28T03:38:23.070Z,14.85
2017-06-28T03:39:22.713Z,14.86
2017-06-28T03:40:23.028Z,14.95
2017-06-28T03:41:22.701Z,15.05
2017-06-28T03:42:23.063Z,15.05
2017-06-28T03:43:23.041Z,15.1
2017-06-28T03:44:23.009Z,15.16
2017-06-28T03:45:22.687Z,15.25
2017-06-28T03:46:22.681Z,15.23
2017-06-28T03:47:22.354Z,15.35
2017-06-28T03:48:22.719Z,15.34
2017-06-28T03:49:23.030Z,15.41
2017-06-28T03:50:23.006Z,15.45
2017-06-28T03:51:22.975Z,15.51
2017-06-28T03:52:22.348Z,15.52
2017-06-28T03:53:23.040Z,15.52
2017-06-28T03:54:22.643Z,15.43
2017-06-28T03:55:23.776Z,15.56
2017-06-28T03:56:22.974Z,15.52
2017-06-28T03:57:22.975Z,15.51
2017-06-28T03:58:23.355Z,15.47
2017-06-28T03:59:23.173Z,15.44
2017-06-28T04:00:23.097Z,15.47
2017-06-28T04:01:22.717Z,15.35
2017-06-28T04:02:22.958Z,15.41
2017-06-28T04:03:22.924Z,15.33
2017-06-28T04:04:22.562Z,15.3
2017-06-28T04:05:23.253Z,15.35
2017-06-28T04:06:23.272Z,15.31
2017-06-28T04:07:23.158Z,15.34
2017-06-28T04:08:22.717Z,15.27
2017-06-28T04:09:22.587Z,15.31
2017-06-28T04:10:22.942Z,15.26
2017-06-28T04:11:22.514Z,15.27
2017-06-28T04:12:23.318Z,15.34
2017-06-28T04:13:23.173Z,15.37
2017-06-28T04:14:23.241Z,15.37
2017-06-28T04:15:23.023Z,15.37
2017-06-28T04:16:22.865Z,15.37
2017-06-28T04:17:22.544Z,15.4
2017-06-28T04:18:22.790Z,15.35
2017-06-28T04:19:23.284Z,15.38
2017-06-28T04:20:23.178Z,15.44
2017-06-28T04:21:23.278Z,15.55
2017-06-28T04:22:22.706Z,15.58
2017-06-28T04:23:22.577Z,15.59
2017-06-28T04:24:22.881Z,15.62
2017-06-28T04:25:22.600Z,15.6
2017-06-28T04:26:23.224Z,15.67
2017-06-28T04:27:22.508Z,15.62
2017-06-28T04:28:22.842Z,15.7
2017-06-28T04:29:22.820Z,15.68
2017-06-28T04:30:22.489Z,15.65
2017-06-28T04:31:22.163Z,15.68
2017-06-28T04:32:22.803Z,15.71
2017-06-28T04:33:22.811Z,15.71
2017-06-28T04:34:22.474Z,15.73
2017-06-28T04:35:22.790Z,15.77
2017-06-28T04:36:22.809Z,15.73
2017-06-28T04:37:22.780Z,15.91
2017-06-28T04:38:22.452Z,15.75
2017-06-28T04:39:22.776Z,15.84
2017-06-28T04:40:22.451Z,15.83
2017-06-28T04:41:22.783Z,15.95
2017-06-28T04:42:22.440Z,16.02
2017-06-28T04:43:22.775Z,16.1
2017-06-28T04:44:22.444Z,16.13
2017-06-28T04:45:22.429Z,16.16
2017-06-28T04:46:22.767Z,16.21
2017-06-28T04:47:22.759Z,16.18
2017-06-28T04:48:22.739Z,16.21
2017-06-28T04:49:22.429Z,16.14
2017-06-28T04:50:22.434Z,16.21
2017-06-28T04:51:22.741Z,16.25
2017-06-28T04:52:22.426Z,16.27
2017-06-28T04:53:22.729Z,16.26
2017-06-28T04:54:22.754Z,16.32
2017-06-28T04:55:22.715Z,16.36
2017-06-28T04:56:22.727Z,16.47
2017-06-28T04:57:22.715Z,16.66
2017-06-28T04:58:22.701Z,16.66
2017-06-28T04:59:22.706Z,16.77
2017-06-28T05:00:22.719Z,16.73
2017-06-28T05:01:22.383Z,16.9
2017-06-28T05:02:22.367Z,17.09
2017-06-28T05:03:22.688Z,17.09
2017-06-28T05:04:22.366Z,17.22
2017-06-28T05:05:22.699Z,17.25
2017-06-28T05:06:22.357Z,17.36
2017-06-28T05:07:22.700Z,17.47
2017-06-28T05:08:22.351Z,17.52
2017-06-28T05:09:22.675Z,17.57
2017-06-28T05:10:22.344Z,17.66
2017-06-28T05:11:22.342Z,17.8
2017-06-28T05:12:22.357Z,17.87
2017-06-28T05:13:22.665Z,17.99
2017-06-28T05:14:22.708Z,18.16
2017-06-28T05:15:22.011Z,18.35
2017-06-28T05:16:22.652Z,18.36
2017-06-28T05:17:22.330Z,18.53
2017-06-28T05:18:22.652Z,18.65
2017-06-28T05:19:22.664Z,18.74
2017-06-28T05:20:22.648Z,18.91
2017-06-28T05:21:22.644Z,19.06
2017-06-28T05:22:22.656Z,19.23
2017-06-28T05:23:22.641Z,19.24
2017-06-28T05:24:22.631Z,19.55
2017-06-28T05:25:22.314Z,19.45
2017-06-28T05:26:22.631Z,19.5
2017-06-28T05:27:22.304Z,19.53
2017-06-28T05:28:22.641Z,19.53
2017-06-28T05:29:22.639Z,19.46
2017-06-28T05:30:21.983Z,19.53
2017-06-28T05:31:22.619Z,19.5
2017-06-28T05:32:22.635Z,19.4
2017-06-28T05:33:22.620Z,19.42
2017-06-28T05:34:22.615Z,19.42
2017-06-28T05:35:22.291Z,19.4
2017-06-28T05:36:22.616Z,19.34
2017-06-28T05:37:22.626Z,19.34
2017-06-28T05:38:22.296Z,19.37
2017-06-28T05:39:22.611Z,19.53
2017-06-28T05:40:22.285Z,19.5
2017-06-28T05:41:22.608Z,19.57
2017-06-28T05:42:22.296Z,19.78
2017-06-28T05:43:22.301Z,19.83
2017-06-28T05:44:21.991Z,20
2017-06-28T05:45:22.606Z,20.19
2017-06-28T05:46:22.283Z,20.27
2017-06-28T05:47:22.602Z,20.57
2017-06-28T05:48:22.618Z,20.74
2017-06-28T05:49:22.615Z,20.96
2017-06-28T05:50:22.597Z,21
2017-06-28T05:51:22.596Z,21.15
2017-06-28T05:52:22.641Z,21.16
2017-06-28T05:53:22.280Z,21.18
2017-06-28T05:54:22.607Z,21.27
2017-06-28T05:55:22.597Z,21.37
2017-06-28T05:56:22.275Z,21.23
2017-06-28T05:57:22.597Z,21.27
2017-06-28T05:58:22.298Z,21.33
2017-06-28T05:59:22.593Z,21.18
2017-06-28T06:00:22.594Z,21.28
2017-06-28T06:01:22.599Z,21.25
2017-06-28T06:02:22.594Z,21.18
2017-06-28T06:03:22.277Z,21.25
2017-06-28T06:04:22.602Z,21.13
2017-06-28T06:05:22.597Z,21.21
2017-06-28T06:06:22.273Z,21.16
2017-06-28T06:07:22.276Z,21.18
2017-06-28T06:08:22.615Z,21.27
2017-06-28T06:09:22.294Z,21.27
2017-06-28T06:10:22.633Z,21.41
2017-06-28T06:11:22.610Z,21.64
2017-06-28T06:12:22.276Z,21.9
2017-06-28T06:13:22.278Z,22
2017-06-28T06:14:22.288Z,22.3
2017-06-28T06:15:22.602Z,22.49
2017-06-28T06:16:22.604Z,22.67
2017-06-28T06:17:22.603Z,22.97
2017-06-28T06:18:22.606Z,23.16
2017-06-28T06:19:22.282Z,23.28
2017-06-28T06:20:22.292Z,23.28
2017-06-28T06:21:22.283Z,23.28
2017-06-28T06:22:22.606Z,23.26
2017-06-28T06:23:22.611Z,23.22
2017-06-28T06:24:21.968Z,23.26
2017-06-28T06:25:21.991Z,23.29
2017-06-28T06:26:22.296Z,23.28
2017-06-28T06:27:22.608Z,23.26
2017-06-28T06:28:22.300Z,23.22
2017-06-28T06:29:22.296Z,23.25
2017-06-28T06:30:22.294Z,23.38
2017-06-28T06:31:22.297Z,23.42
2017-06-28T06:32:22.304Z,23.5
2017-06-28T06:33:21.979Z,23.6
2017-06-28T06:34:22.307Z,23.7
2017-06-28T06:35:22.625Z,23.74
2017-06-28T06:36:22.637Z,23.84
2017-06-28T06:37:22.629Z,23.74
2017-06-28T06:38:22.676Z,23.89
2017-06-28T06:39:22.314Z,23.87
2017-06-28T06:40:22.683Z,24.08
2017-06-28T06:41:22.332Z,24.14
2017-06-28T06:42:22.645Z,24.22
2017-06-28T06:43:22.000Z,24.19
2017-06-28T06:44:22.344Z,24.29
2017-06-28T06:45:22.647Z,24.61
2017-06-28T06:46:22.653Z,24.97
2017-06-28T06:47:22.020Z,25.15
2017-06-28T06:48:22.335Z,25.24
2017-06-28T06:49:22.659Z,25.3
2017-06-28T06:50:22.338Z,25.2
2017-06-28T06:51:22.710Z,25.05
2017-06-28T06:52:22.662Z,24.94
2017-06-28T06:53:22.343Z,24.7
2017-06-28T06:54:22.357Z,24.56
2017-06-28T06:55:22.669Z,24.4
2017-06-28T06:56:22.359Z,24.32
2017-06-28T06:57:22.413Z,24.15
2017-06-28T06:58:22.679Z,24.09
2017-06-28T06:59:22.366Z,24.12
2017-06-28T07:00:22.361Z,23.99
2017-06-28T07:01:22.692Z,24
2017-06-28T07:02:22.713Z,23.94
2017-06-28T07:03:22.376Z,23.94
2017-06-28T07:04:22.385Z,23.89
2017-06-28T07:05:22.698Z,23.89
2017-06-28T07:06:22.728Z,23.87
2017-06-28T07:07:22.400Z,23.87
2017-06-28T07:08:22.426Z,23.92
2017-06-28T07:09:22.707Z,23.92
2017-06-28T07:10:22.710Z,23.81
2017-06-28T07:11:22.394Z,24.07
2017-06-28T07:12:22.403Z,24.34
2017-06-28T07:13:22.396Z,25
2017-06-28T07:14:22.402Z,25.76
2017-06-28T07:15:22.737Z,26.38
2017-06-28T07:16:22.411Z,26.81
2017-06-28T07:17:22.729Z,27.37
2017-06-28T07:18:22.416Z,27.8
2017-06-28T07:19:22.740Z,28.31
2017-06-28T07:20:22.098Z,28.98
2017-06-28T07:21:22.422Z,29.61
2017-06-28T07:22:22.106Z,30.14
2017-06-28T07:23:22.764Z,30.47
2017-06-28T07:24:22.452Z,30.99
2017-06-28T07:25:22.772Z,31.49
2017-06-28T07:26:22.481Z,32
2017-06-28T07:27:22.779Z,32.53
2017-06-28T07:28:22.787Z,32.87
2017-06-28T07:29:22.470Z,33.23
2017-06-28T07:30:22.152Z,33.62
2017-06-28T07:31:22.867Z,33.96
2017-06-28T07:32:22.489Z,34.17
2017-06-28T07:33:22.505Z,34.39
2017-06-28T07:34:22.180Z,34.54
2017-06-28T07:35:22.835Z,34.69
2017-06-28T07:36:22.845Z,34.83
2017-06-28T07:37:22.528Z,34.89
2017-06-28T07:38:22.862Z,35.06
2017-06-28T07:39:22.940Z,34.96
2017-06-28T07:40:22.559Z,34.59
2017-06-28T07:41:22.236Z,34.05
2017-06-28T07:42:22.892Z,33.99
2017-06-28T07:43:22.599Z,34.17
2017-06-28T07:44:22.925Z,34.32
2017-06-28T07:45:22.617Z,34.63
2017-06-28T07:46:22.930Z,34.56
2017-06-28T07:47:22.623Z,34.1
2017-06-28T07:48:22.664Z,33.69
2017-06-28T07:49:22.956Z,33.11
2017-06-28T07:50:22.361Z,32.37
2017-06-28T07:51:22.991Z,31.68
2017-06-28T07:52:23.007Z,31.01
2017-06-28T07:53:22.695Z,30.54
2017-06-28T07:54:22.371Z,30.18
2017-06-28T07:55:23.014Z,29.82
2017-06-28T07:56:23.021Z,29.63
2017-06-28T07:57:22.723Z,29.3
2017-06-28T07:58:23.043Z,29.03
2017-06-28T07:59:23.049Z,28.63
2017-06-28T08:00:23.050Z,28.18
2017-06-28T08:01:23.059Z,27.86
2017-06-28T08:02:22.747Z,27.52
2017-06-28T08:03:22.752Z,27.27
2017-06-28T08:04:22.438Z,27.06
2017-06-28T08:05:22.767Z,26.99
2017-06-28T08:06:23.093Z,26.99
2017-06-28T08:07:23.100Z,26.84
2017-06-28T08:08:22.801Z,26.61
2017-06-28T08:09:22.798Z,26.47
2017-06-28T08:10:22.802Z,26.31
2017-06-28T08:11:22.807Z,26.06
2017-06-28T08:12:22.814Z,25.81
2017-06-28T08:13:23.145Z,25.69
2017-06-28T08:14:23.155Z,25.49
2017-06-28T08:15:22.831Z,25.41
2017-06-28T08:16:23.160Z,25.29
2017-06-28T08:17:23.170Z,25.15
2017-06-28T08:18:22.524Z,25.04
2017-06-28T08:19:22.851Z,24.82
2017-06-28T08:20:22.855Z,24.7
2017-06-28T08:21:23.196Z,24.56
2017-06-28T08:22:23.205Z,24.55
2017-06-28T08:23:23.195Z,24.52
2017-06-28T08:24:23.203Z,24.39
2017-06-28T08:25:22.557Z,24.33
2017-06-28T08:26:23.204Z,24.39
2017-06-28T08:27:23.217Z,24.37
2017-06-28T08:28:23.215Z,24.26
2017-06-28T08:29:23.220Z,24.24
2017-06-28T08:30:23.243Z,24.11
2017-06-28T08:31:22.920Z,24.02
2017-06-28T08:32:23.228Z,23.9
2017-06-28T08:33:22.910Z,23.79
2017-06-28T08:34:23.246Z,23.72
2017-06-28T08:35:23.257Z,23.66
2017-06-28T08:36:22.941Z,23.5
2017-06-28T08:37:23.247Z,23.47
2017-06-28T08:38:22.934Z,23.32
2017-06-28T08:39:23.253Z,23.21
2017-06-28T08:40:22.938Z,23.01
2017-06-28T08:41:22.935Z,22.96
2017-06-28T08:42:22.618Z,22.76
2017-06-28T08:43:22.620Z,22.63
2017-06-28T08:44:22.630Z,22.46
2017-06-28T08:45:22.958Z,22.34
2017-06-28T08:46:23.273Z,22.18
2017-06-28T08:47:23.282Z,22.11
2017-06-28T08:48:22.957Z,22.09
2017-06-28T08:49:22.966Z,22.07
2017-06-28T08:50:23.295Z,22
2017-06-28T08:51:23.285Z,21.93
2017-06-28T08:52:22.996Z,21.86
2017-06-28T08:53:22.992Z,21.77
2017-06-28T08:54:23.315Z,21.78
2017-06-28T08:55:22.974Z,21.61
2017-06-28T08:56:22.650Z,21.67
2017-06-28T08:57:23.301Z,21.62
2017-06-28T08:58:22.977Z,21.56
2017-06-28T08:59:22.978Z,21.49
2017-06-28T09:00:23.316Z,21.52
2017-06-28T09:01:22.984Z,21.59
2017-06-28T09:02:23.303Z,21.59
2017-06-28T09:03:22.985Z,21.55
2017-06-28T09:04:23.311Z,21.51
2017-06-28T09:05:23.316Z,21.49
2017-06-28T09:06:23.309Z,21.48
2017-06-28T09:07:23.004Z,21.52
2017-06-28T09:08:23.317Z,21.62
2017-06-28T09:09:22.670Z,21.59
2017-06-28T09:10:23.317Z,21.64
2017-06-28T09:11:22.993Z,21.66
2017-06-28T09:12:22.999Z,21.67
2017-06-28T09:13:23.003Z,21.68
2017-06-28T09:14:23.318Z,21.71
2017-06-28T09:15:23.322Z,21.8
2017-06-28T09:16:22.999Z,21.85
2017-06-28T09:17:23.002Z,21.9
2017-06-28T09:18:23.322Z,21.92
2017-06-28T09:19:22.687Z,21.9
2017-06-28T09:20:23.325Z,21.85
2017-06-28T09:21:23.028Z,21.8
2017-06-28T09:22:23.011Z,21.73
2017-06-28T09:23:23.333Z,21.56
2017-06-28T09:24:23.336Z,21.53
2017-06-28T09:25:23.012Z,21.62
2017-06-28T09:26:23.054Z,21.45
2017-06-28T09:27:22.696Z,21.49
2017-06-28T09:28:23.337Z,21.43
2017-06-28T09:29:23.039Z,21.46
2017-06-28T09:30:23.018Z,21.43
2017-06-28T09:31:23.340Z,21.34
2017-06-28T09:32:23.021Z,21.3
2017-06-28T09:33:23.361Z,21.31
2017-06-28T09:34:23.369Z,21.15
2017-06-28T09:35:23.345Z,21.06
2017-06-28T09:36:23.342Z,20.97
2017-06-28T09:37:23.026Z,21.04
2017-06-28T09:38:23.348Z,21
2017-06-28T09:39:23.031Z,20.88
2017-06-28T09:40:23.350Z,20.9
2017-06-28T09:41:23.348Z,20.81
2017-06-28T09:42:23.048Z,20.67
2017-06-28T09:43:23.371Z,20.76
2017-06-28T09:44:23.035Z,20.71
2017-06-28T09:45:22.717Z,20.72
2017-06-28T09:46:23.034Z,20.76
2017-06-28T09:47:23.353Z,20.68
2017-06-28T09:48:23.047Z,20.71
2017-06-28T09:49:23.355Z,20.61
2017-06-28T09:50:23.031Z,20.68
2017-06-28T09:51:22.731Z,20.61
2017-06-28T09:52:23.035Z,20.63
2017-06-28T09:53:23.038Z,20.56
2017-06-28T09:54:23.395Z,20.6
2017-06-28T09:55:23.360Z,20.66
2017-06-28T09:56:23.037Z,20.58
2017-06-28T09:57:23.037Z,20.78
2017-06-28T09:58:23.362Z,20.74
2017-06-28T09:59:23.361Z,20.78
2017-06-28T10:00:23.371Z,20.83
2017-06-28T10:01:23.043Z,21.06
2017-06-28T10:02:23.038Z,21.19
2017-06-28T10:03:23.040Z,21.34
2017-06-28T10:04:23.365Z,21.43
2017-06-28T10:05:23.039Z,21.7
2017-06-28T10:06:23.377Z,22.05
2017-06-28T10:07:23.042Z,22.02
2017-06-28T10:08:23.379Z,22.18
2017-06-28T10:09:23.049Z,22.36
2017-06-28T10:10:23.371Z,22.52
2017-06-28T10:11:23.047Z,22.81
2017-06-28T10:12:22.726Z,23
2017-06-28T10:13:22.732Z,23.44
2017-06-28T10:14:23.056Z,23.89
2017-06-28T10:15:23.070Z,24.14
2017-06-28T10:16:22.730Z,24.27
2017-06-28T10:17:23.375Z,24.49
2017-06-28T10:18:23.055Z,24.61
2017-06-28T10:19:23.380Z,24.78
2017-06-28T10:20:23.067Z,25.01
2017-06-28T10:21:23.381Z,25.19
2017-06-28T10:22:23.386Z,25.38
2017-06-28T10:23:23.070Z,25.47
2017-06-28T10:24:23.390Z,25.67
2017-06-28T10:25:23.073Z,25.75
2017-06-28T10:26:23.074Z,25.82
2017-06-28T10:27:23.402Z,25.84
2017-06-28T10:28:23.139Z,26.03
2017-06-28T10:29:23.410Z,26.09
2017-06-28T10:30:22.768Z,26.03
2017-06-28T10:31:22.769Z,26.01
2017-06-28T10:32:23.415Z,26.01
2017-06-28T10:33:23.428Z,26.06
2017-06-28T10:34:23.427Z,25.99
2017-06-28T10:35:23.433Z,25.88
2017-06-28T10:36:23.106Z,25.89
2017-06-28T10:37:23.430Z,25.75
2017-06-28T10:38:23.433Z,25.66
2017-06-28T10:39:22.807Z,25.74
2017-06-28T10:40:22.799Z,25.88
2017-06-28T10:41:23.465Z,25.99
2017-06-28T10:42:23.128Z,26.11
2017-06-28T10:43:23.151Z,26.19
2017-06-28T10:44:23.459Z,26.26
2017-06-28T10:45:22.816Z,26.26
2017-06-28T10:46:23.464Z,25.99
2017-06-28T10:47:23.147Z,26.07
2017-06-28T10:48:23.476Z,26.15
2017-06-28T10:49:23.156Z,26.09
2017-06-28T10:50:23.162Z,26.11
2017-06-28T10:51:23.485Z,26.03
2017-06-28T10:52:23.194Z,26.06
2017-06-28T10:53:23.170Z,26.06
2017-06-28T10:54:23.502Z,25.96
2017-06-28T10:55:23.183Z,25.96
2017-06-28T10:56:23.187Z,25.86
2017-06-28T10:57:23.189Z,25.86
2017-06-28T10:58:23.197Z,25.71
2017-06-28T10:59:23.220Z,25.63
2017-06-28T11:00:23.223Z,25.57
2017-06-28T11:01:22.890Z,25.39
2017-06-28T11:02:23.531Z,25.29
2017-06-28T11:03:23.217Z,25.19
2017-06-28T11:04:23.543Z,24.97
2017-06-28T11:05:23.562Z,24.85
2017-06-28T11:06:22.908Z,24.69
2017-06-28T11:07:23.550Z,24.55
2017-06-28T11:08:23.557Z,24.45
2017-06-28T11:09:23.248Z,24.3
2017-06-28T11:10:23.563Z,24.32
2017-06-28T11:11:23.248Z,24.22
2017-06-28T11:12:23.570Z,24.14
2017-06-28T11:13:23.255Z,24.14
2017-06-28T11:14:23.260Z,24.17
2017-06-28T11:15:23.577Z,24.03
2017-06-28T11:16:23.269Z,23.99
2017-06-28T11:17:23.587Z,24.03
2017-06-28T11:18:23.316Z,24.03
2017-06-28T11:19:23.298Z,24
2017-06-28T11:20:22.955Z,24.03
2017-06-28T11:21:23.597Z,24
2017-06-28T11:22:23.282Z,23.99
2017-06-28T11:23:23.606Z,23.99
2017-06-28T11:24:23.290Z,23.87
2017-06-28T11:25:23.293Z,23.94
2017-06-28T11:26:23.617Z,23.94
2017-06-28T11:27:23.630Z,24.07
2017-06-28T11:28:23.304Z,24.11
2017-06-28T11:29:23.628Z,24.17
2017-06-28T11:30:23.304Z,24.29
2017-06-28T11:31:23.649Z,24.42
2017-06-28T11:32:23.634Z,24.58
2017-06-28T11:33:23.316Z,24.67
2017-06-28T11:34:23.642Z,24.85
2017-06-28T11:35:22.999Z,24.85
2017-06-28T11:36:23.646Z,25
2017-06-28T11:37:23.332Z,25.05
2017-06-28T11:38:23.337Z,25.19
2017-06-28T11:39:23.663Z,25.23
2017-06-28T11:40:23.338Z,25.32
2017-06-28T11:41:23.664Z,25.48
2017-06-28T11:42:23.662Z,25.52
2017-06-28T11:43:23.680Z,25.33
2017-06-28T11:44:23.368Z,25.34
2017-06-28T11:45:23.354Z,25.33
2017-06-28T11:46:23.360Z,25.39
2017-06-28T11:47:23.682Z,25.48
2017-06-28T11:48:23.711Z,25.49
2017-06-28T11:49:23.377Z,25.49
2017-06-28T11:50:23.697Z,25.49
2017-06-28T11:51:23.705Z,25.47
2017-06-28T11:52:23.404Z,25.54
2017-06-28T11:53:23.388Z,25.64
2017-06-28T11:54:23.717Z,25.62
2017-06-28T11:55:23.713Z,25.56
2017-06-28T11:56:23.402Z,25.33
2017-06-28T11:57:23.724Z,25.2
2017-06-28T11:58:23.407Z,25.14
2017-06-28T11:59:23.416Z,25.05
2017-06-28T12:00:23.415Z,24.85
2017-06-28T12:01:23.100Z,24.71
2017-06-28T12:02:23.424Z,24.56
2017-06-28T12:03:23.428Z,24.39
2017-06-28T12:04:23.765Z,24.44
2017-06-28T12:05:23.754Z,24.42
2017-06-28T12:06:23.446Z,24.39
2017-06-28T12:07:23.764Z,24.4
2017-06-28T12:08:23.798Z,24.33
2017-06-28T12:09:23.772Z,24.51
2017-06-28T12:10:23.789Z,24.42
2017-06-28T12:11:23.148Z,24.46
2017-06-28T12:12:23.779Z,24.39
2017-06-28T12:13:23.784Z,24.3
2017-06-28T12:14:23.486Z,24.32
2017-06-28T12:15:23.788Z,24.3
2017-06-28T12:16:23.791Z,24.22
2017-06-28T12:17:23.474Z,24.18
2017-06-28T12:18:23.481Z,24.21
2017-06-28T12:19:23.491Z,24.22
2017-06-28T12:20:23.489Z,24.3
2017-06-28T12:21:23.808Z,24.34
2017-06-28T12:22:23.821Z,24.46
2017-06-28T12:23:23.498Z,24.7
2017-06-28T12:24:23.828Z,24.9
2017-06-28T12:25:23.825Z,25.19
2017-06-28T12:26:23.506Z,25.26
2017-06-28T12:27:23.511Z,25.38
2017-06-28T12:28:23.841Z,25.41
2017-06-28T12:29:23.514Z,25.52
2017-06-28T12:30:23.568Z,25.52
2017-06-28T12:31:23.529Z,25.52
2017-06-28T12:32:23.850Z,25.51
2017-06-28T12:33:23.540Z,25.51
2017-06-28T12:34:23.871Z,25.54
2017-06-28T12:35:23.544Z,25.47
2017-06-28T12:36:23.550Z,25.38
2017-06-28T12:37:23.546Z,25.24
2017-06-28T12:38:23.551Z,25.19
2017-06-28T12:39:23.562Z,25.14
2017-06-28T12:40:23.558Z,25.17
2017-06-28T12:41:23.564Z,25.2
2017-06-28T12:42:23.886Z,25.14
2017-06-28T12:43:23.571Z,25.11
2017-06-28T12:44:23.894Z,25.11
2017-06-28T12:45:23.910Z,25.19
2017-06-28T12:46:23.927Z,25.2
2017-06-28T12:47:23.924Z,25.26
2017-06-28T12:48:23.592Z,25.37
2017-06-28T12:49:23.915Z,25.32
2017-06-28T12:50:23.596Z,25.34
2017-06-28T12:51:23.925Z,25.34
2017-06-28T12:52:23.282Z,25.47
2017-06-28T12:53:23.613Z,25.49
2017-06-28T12:54:23.620Z,25.42
2017-06-28T12:55:23.939Z,25.38